Latest Weather Observations for Borroloola

IDD60801

Issued at 7:35 pm CST Friday 24 October 2014 (issued every 30 minutes, with the page automatically refreshed every 10 minutes)

About weather observations | Map of weather stations | Latest weather observations for NT | Other Formats
Station Details ID: 014723 Name: BORROLOOLA AIRPORT Lat: -16.08 Lon: 136.30 Height: 16.1 m
Data from the previous 72 hours. | See also: Recent months at Borroloola
Date/Time
CST
Temp
°C
App
Temp
°C
Dew
Point
Rel
Hum
%
Delta-T
°C
Wind Press
QNH
hPa
Press
MSL
hPa
Rain
since 9 am
mm
Dir
 
Spd
km/h
Gust
km/h
Spd
kts
Gust
kts
24/07:30pm 27.2 27.4 18.5 59 5.6 NNE 15 20 8 11 1013.6 1013.5 0.0
24/07:00pm 27.8 28.2 19.1 59 5.6 NNE 15 20 8 11 1013.0 1012.9 0.0
24/06:30pm 28.3 28.4 19.2 57 5.9 N 17 22 9 12 1012.6 1012.5 0.0
24/06:00pm 29.4 29.0 18.8 53 6.8 NNE 19 28 10 15 1012.2 1012.1 0.0
24/05:30pm 31.1 30.1 16.7 42 9.1 NE 17 22 9 12 1011.8 1011.7 0.0
24/05:00pm 31.9 31.1 17.0 41 9.5 NE 17 24 9 13 1011.7 1011.6 0.0
24/04:30pm 32.0 30.5 16.7 40 9.7 NE 20 30 11 16 1011.7 1011.6 0.0
24/04:00pm 31.7 29.1 16.0 38 9.8 NE 24 32 13 17 1011.8 1011.7 0.0
24/03:30pm 33.1 30.9 16.0 35 10.7 NE 22 37 12 20 1011.8 1011.7 0.0
24/03:00pm 33.0 31.0 15.0 33 11.1 E 19 28 10 15 1012.0 1011.9 0.0
24/02:30pm 33.3 29.9 14.8 32 11.4 ENE 26 35 14 19 1012.4 1012.3 0.0
24/02:00pm 33.4 30.1 14.9 32 11.4 ENE 26 33 14 18 1013.0 1012.9 0.0
24/01:30pm 33.5 31.1 16.4 36 10.8 ENE 24 28 13 15 1013.3 1013.2 0.0
24/01:00pm 32.8 30.2 15.8 36 10.6 NE 24 37 13 20 1013.9 1013.8 0.0
24/12:30pm 32.7 30.3 16.5 37 10.2 NE 24 35 13 19 1014.3 1014.2 0.0
24/12:00pm 32.4 29.1 15.0 35 10.7 ENE 26 35 14 19 1014.9 1014.8 0.0
24/11:30am 33.5 30.8 14.5 31 11.7 NE 22 39 12 21 1015.1 1015.0 0.0
24/11:00am 32.9 29.3 13.0 30 11.9 NE 24 32 13 17 1015.3 1015.2 0.0
24/10:30am 33.6 30.0 14.1 30 11.9 NE 26 39 14 21 1015.5 1015.4 0.0
24/10:00am 32.9 29.7 13.0 30 11.9 E 22 30 12 16 1015.7 1015.6 0.0
24/09:30am 32.9 30.1 12.5 29 12.1 NE 19 28 10 15 1015.7 1015.6 0.0
24/09:00am 30.5 31.1 16.9 44 8.6 SE 9 15 5 8 1015.6 1015.5 0.0
24/08:30am 28.8 31.0 19.1 55 6.3 ESE 6 9 3 5 1015.2 1015.1 0.0
24/08:00am 26.6 29.3 20.7 70 3.9 SSW 7 9 4 5 1015.1 1015.0 0.0
24/07:30am 24.7 26.8 20.2 76 2.9 S 9 13 5 7 1014.7 1014.6 0.0
24/07:00am 22.4 24.5 19.0 81 2.2 SE 6 11 3 6 1014.7 1014.6 0.0
24/06:30am 19.6 22.1 17.2 86 1.5 CALM 0 0 0 0 1014.4 1014.3 0.0
24/06:00am 18.7 20.9 16.5 87 1.3 CALM 0 0 0 0 1014.2 1014.1 0.0
24/05:30am 18.9 21.1 16.5 86 1.4 N 0 0 0 0 1013.8 1013.7 0.0
24/05:00am 19.6 22.2 17.4 87 1.3 CALM 0 0 0 0 1013.6 1013.5 0.0
24/04:30am 20.2 23.1 18.3 89 1.2 CALM 0 0 0 0 1013.4 1013.3 0.0
24/04:00am 19.9 22.4 17.3 85 1.6 CALM 0 0 0 0 1013.2 1013.1 0.0
24/03:30am 20.2 22.8 17.6 85 1.6 CALM 0 0 0 0 1013.0 1012.9 0.0
24/03:00am 20.3 22.7 17.1 82 2.0 CALM 0 0 0 0 1013.0 1012.9 0.0
24/02:30am 21.2 23.9 17.8 81 2.1 CALM 0 0 0 0 1013.2 1013.1 0.0
24/02:00am 21.4 24.0 17.6 79 2.3 CALM 0 0 0 0 1013.6 1013.5 0.0
24/01:30am 21.7 24.6 18.1 80 2.2 CALM 0 0 0 0 1013.8 1013.7 0.0
24/01:00am 21.9 24.5 17.5 76 2.7 CALM 0 0 0 0 1014.2 1014.1 0.0
24/12:30am 23.1 26.0 18.2 74 3.1 CALM 0 0 0 0 1014.4 1014.3 0.0
24/12:00am 23.9 27.4 19.6 77 2.8 N 0 0 0 0 1014.9 1014.8 0.0
 
Date/Time
CST
Temp
°C
App
Temp
°C
Dew
Point
Rel
Hum
%
Delta-T
°C
Wind Press
QNH
hPa
Press
MSL
hPa
Rain
since 9 am
mm
Dir
 
Spd
km/h
Gust
km/h
Spd
kts
Gust
kts
23/11:30pm 24.3 27.1 19.6 75 3.0 N 4 6 2 3 1015.0 1014.9 0.0
23/11:00pm 24.5 27.1 19.3 73 3.3 N 4 6 2 3 1015.0 1014.9 0.0
23/10:30pm 24.9 27.1 19.7 73 3.4 N 7 9 4 5 1015.1 1015.0 0.0
23/10:00pm 25.2 27.6 20.0 73 3.4 NNE 7 9 4 5 1014.9 1014.8 0.0
23/09:30pm 25.7 27.9 20.3 72 3.5 NNE 9 13 5 7 1014.8 1014.7 0.0
23/09:00pm 26.2 27.3 20.5 71 3.7 NE 15 20 8 11 1014.4 1014.3 0.0
23/08:30pm 26.5 27.5 20.3 68 4.1 NE 15 22 8 12 1014.3 1014.2 0.0
23/08:00pm 26.9 27.8 20.0 66 4.5 NE 15 24 8 13 1013.9 1013.8 0.0
23/07:30pm 27.3 27.7 19.9 64 4.8 NE 17 22 9 12 1013.6 1013.5 0.0
23/07:00pm 27.9 28.5 20.2 63 5.1 NE 17 22 9 12 1013.2 1013.1 0.0
23/06:30pm 28.5 28.4 20.0 60 5.6 NE 20 30 11 16 1012.7 1012.6 0.0
23/06:00pm 29.3 29.0 19.6 56 6.3 ENE 20 30 11 16 1012.4 1012.3 0.0
23/05:30pm 30.1 28.7 18.8 50 7.3 ENE 24 35 13 19 1012.0 1011.9 0.0
23/05:00pm 30.8 29.3 18.5 47 7.9 NNE 24 32 13 17 1011.6 1011.5 0.0
23/04:30pm 31.9 30.1 18.8 45 8.5 NNE 26 37 14 20 1011.3 1011.2 0.0
23/04:00pm 32.8 31.2 17.4 39 9.9 ENE 22 26 12 14 1011.3 1011.2 0.0
23/03:30pm 33.1 30.5 16.0 35 10.7 ENE 24 37 13 20 1011.4 1011.3 0.0
23/03:00pm 33.3 30.3 14.8 32 11.4 NE 24 33 13 18 1011.5 1011.4 0.0
23/02:30pm 33.1 31.0 15.1 33 11.2 NE 20 30 11 16 1011.7 1011.6 0.0
23/02:00pm 33.5 31.3 14.5 31 11.7 NNE 19 30 10 16 1012.1 1012.0 0.0
23/01:30pm 34.6 32.0 15.0 31 12.2 NE 22 32 12 17 1012.4 1012.3 0.0
23/01:00pm 33.6 30.7 15.1 33 11.5 NE 24 39 13 21 1013.0 1012.9 0.0
23/12:30pm 34.6 32.2 15.5 32 12.0 NE 22 32 12 17 1013.5 1013.4 0.0
23/12:00pm 33.7 30.8 16.1 34 11.1 ENE 26 39 14 21 1013.9 1013.8 0.0
23/11:30am 33.0 29.3 15.0 33 11.1 NE 28 43 15 23 1014.4 1014.3 0.0
23/11:00am 33.3 29.9 15.8 35 11.0 ENE 28 41 15 22 1014.6 1014.5 0.0
23/10:30am 32.2 28.6 17.7 42 9.3 ENE 33 48 18 26 1014.8 1014.7 0.0
23/10:22am 32.7 27.2 15.7 36 10.6 ENE 39 46 21 25 1014.7 1014.6 0.0
23/10:00am 33.4 31.8 14.0 31 11.8 E 15 28 8 15 1014.8 1014.7 0.0
23/09:30am 31.6 32.3 17.1 41 9.2 ENE 9 15 5 8 1015.2 1015.1 0.0
23/09:00am 30.4 33.0 20.0 53 6.8 SSE 6 9 3 5 1015.2 1015.1 0.0
23/08:30am 27.8 30.0 20.4 64 4.9 S 9 17 5 9 1015.2 1015.1 0.0
23/08:00am 26.5 29.0 21.0 72 3.6 SSW 9 11 5 6 1015.1 1015.0 0.0
23/07:30am 25.2 28.2 21.3 79 2.6 S 7 11 4 6 1014.7 1014.6 0.0
23/07:00am 23.0 26.5 20.3 85 1.7 N 2 6 1 3 1014.2 1014.1 0.0
23/06:30am 20.8 23.9 18.6 87 1.4 CALM 0 0 0 0 1014.1 1014.0 0.0
23/06:00am 20.3 23.2 18.2 88 1.3 CALM 0 0 0 0 1013.9 1013.8 0.0
23/05:30am 20.6 23.6 18.5 88 1.3 CALM 0 0 0 0 1013.5 1013.4 0.0
23/05:00am 20.8 23.9 18.7 88 1.3 CALM 0 0 0 0 1013.2 1013.1 0.0
23/04:30am 20.8 23.8 18.4 86 1.5 CALM 0 0 0 0 1013.1 1013.0 0.0
23/04:00am 21.0 24.0 18.4 85 1.6 CALM 0 0 0 0 1012.9 1012.8 0.0
23/03:30am 21.4 24.9 19.5 89 1.2 CALM 0 0 0 0 1013.0 1012.9 0.0
23/03:00am 21.5 24.4 19.1 86 1.5 N 2 6 1 3 1013.0 1012.9 0.0
23/02:30am 21.6 24.5 18.2 81 2.1 CALM 0 0 0 0 1013.3 1013.2 0.0
23/02:00am 22.4 26.1 19.9 86 1.6 CALM 0 0 0 0 1013.4 1013.3 0.0
23/01:30am 22.7 26.6 20.4 87 1.5 CALM 0 0 0 0 1013.7 1013.6 0.0
23/01:00am 23.0 27.0 20.5 86 1.6 CALM 0 0 0 0 1013.9 1013.8 0.0
23/12:30am 24.0 28.4 21.3 85 1.8 CALM 0 0 0 0 1014.2 1014.1 0.0
23/12:00am 24.2 28.1 21.1 83 2.0 N 2 7 1 4 1014.6 1014.5 0.0
 
Date/Time
CST
Temp
°C
App
Temp
°C
Dew
Point
Rel
Hum
%
Delta-T
°C
Wind Press
QNH
hPa
Press
MSL
hPa
Rain
since 9 am
mm
Dir
 
Spd
km/h
Gust
km/h
Spd
kts
Gust
kts
22/11:30pm 24.9 28.0 21.4 81 2.3 NNE 7 13 4 7 1015.1 1015.0 0.0
22/11:00pm 25.2 28.3 21.5 80 2.5 ENE 7 11 4 6 1015.3 1015.2 0.0
22/10:30pm 25.4 28.5 21.5 79 2.6 ENE 7 9 4 5 1015.3 1015.2 0.0
22/10:00pm 25.4 28.4 21.3 78 2.7 NE 7 9 4 5 1015.0 1014.9 0.0
22/09:30pm 25.8 28.6 21.5 77 2.9 NNE 9 13 5 7 1014.8 1014.7 0.0
22/09:00pm 26.1 28.1 21.5 76 3.1 NNE 13 19 7 10 1014.3 1014.2 0.0
22/08:30pm 26.5 27.7 21.5 74 3.3 N 17 24 9 13 1014.0 1013.9 0.0
22/08:00pm 26.7 28.1 21.0 71 3.8 NNE 15 20 8 11 1013.9 1013.8 0.0
22/07:30pm 27.4 28.0 21.0 68 4.2 NNE 19 26 10 14 1013.7 1013.6 0.0
22/07:00pm 28.7 28.8 19.1 56 6.2 NE 17 24 9 13 1013.5 1013.4 0.0
22/06:30pm 29.3 28.4 18.1 51 7.2 NE 20 28 11 15 1013.1 1013.0 0.0
22/06:00pm 30.0 28.8 17.5 47 7.9 NE 20 30 11 16 1012.7 1012.6 0.0
22/05:30pm 30.7 28.4 17.7 45 8.3 NE 26 33 14 18 1012.4 1012.3 0.0
22/05:00pm 32.0 29.5 15.1 36 10.4 NE 22 30 12 16 1012.2 1012.1 0.0
22/04:30pm 33.3 30.5 14.4 32 11.6 ENE 22 30 12 16 1012.0 1011.9 0.0
22/04:00pm 33.4 30.1 14.0 31 11.8 NE 24 33 13 18 1011.9 1011.8 0.0
22/03:30pm 34.2 31.7 14.1 29 12.3 NE 20 28 11 15 1011.9 1011.8 0.0
22/03:00pm 34.5 32.1 12.8 27 13.1 NNE 17 24 9 13 1012.1 1012.0 0.0
22/02:30pm 35.3 31.8 12.3 25 13.8 E 22 32 12 17 1012.4 1012.3 0.0
22/02:00pm 34.6 31.3 12.9 27 13.1 ENE 22 33 12 18 1012.8 1012.7 0.0
22/01:30pm 35.6 32.2 13.7 27 13.4 ENE 24 35 13 19 1013.3 1013.2 0.0
22/01:00pm 34.3 31.1 14.2 29 12.3 NE 24 39 13 21 1013.7 1013.6 0.0
22/12:30pm 34.5 30.8 14.9 31 12.2 NE 28 43 15 23 1014.1 1014.0 0.0
22/12:20pm 33.6 30.1 15.6 34 11.3 NE 28 46 15 25 1014.3 1014.2 0.0
22/12:00pm 33.7 29.7 15.2 33 11.5 NE 30 39 16 21 1014.5 1014.4 0.0
22/11:30am 33.7 29.1 14.7 32 11.7 NE 32 46 17 25 1014.7 1014.6 0.0
22/11:11am 34.1 29.5 14.6 31 12.0 NE 32 50 17 27 1014.7 1014.6 0.0
22/11:00am 35.8 31.7 7.8 18 15.7 E 19 33 10 18 1014.6 1014.5 0.0
22/10:30am 34.7 30.6 7.7 19 15.0 E 19 24 10 13 1015.0 1014.9 0.0
22/10:00am 33.5 33.1 14.0 30 11.9 E 9 17 5 9 1015.2 1015.1 0.0
22/09:30am 31.4 32.6 16.9 41 9.2 SE 6 13 3 7 1015.4 1015.3 0.0
22/09:00am 29.8 31.4 18.3 50 7.4 E 7 11 4 6 1015.6 1015.5 0.0
22/08:30am 29.0 32.2 20.4 59 5.7 SSW 4 9 2 5 1015.5 1015.4 0.0
22/08:00am 26.4 29.0 20.5 70 3.9 S 7 13 4 7 1015.4 1015.3 0.0
22/07:30am 25.2 28.2 20.9 77 2.8 SSW 6 9 3 5 1015.3 1015.2 0.0
22/07:00am 23.1 25.9 19.7 81 2.2 SSE 4 6 2 3 1015.1 1015.0 0.0
22/06:30am 20.9 23.6 18.7 87 1.4 SSE 2 6 1 3 1014.9 1014.8 0.0
22/06:00am 20.1 22.9 17.9 87 1.4 CALM 0 0 0 0 1014.5 1014.4 0.0
22/05:30am 19.8 22.6 17.9 89 1.2 CALM 0 0 0 0 1014.4 1014.3 0.0
22/05:00am 20.1 22.8 17.7 86 1.5 CALM 0 0 0 0 1014.0 1013.9 0.0
22/04:30am 20.5 23.3 17.9 85 1.6 CALM 0 0 0 0 1013.6 1013.5 0.0
22/04:00am 21.0 24.2 18.9 88 1.3 CALM 0 0 0 0 1013.5 1013.4 0.0
22/03:30am 21.1 23.9 17.9 82 2.0 CALM 0 0 0 0 1013.5 1013.4 0.0
22/03:00am 21.5 24.5 18.5 83 1.9 CALM 0 0 0 0 1013.4 1013.3 0.0
22/02:30am 21.6 24.3 18.6 83 1.9 SSE 2 6 1 3 1013.5 1013.4 0.0
22/02:00am 22.1 24.7 19.3 84 1.8 S 4 7 2 4 1013.8 1013.7 0.0
22/01:30am 22.3 24.9 19.3 83 1.9 S 4 7 2 4 1014.0 1013.9 0.0
22/01:00am 23.2 27.0 20.2 83 1.9 CALM 0 0 0 0 1014.3 1014.2 0.0
22/12:30am 23.3 25.5 19.7 80 2.3 WNW 7 9 4 5 1014.6 1014.5 0.0
22/12:00am 24.3 28.2 20.4 79 2.5 CALM 0 0 0 0 1015.1 1015.0 0.0
 
Date/Time
CST
Temp
°C
App
Temp
°C
Dew
Point
Rel
Hum
%
Delta-T
°C
Wind Press
QNH
hPa
Press
MSL
hPa
Rain
since 9 am
mm
Dir
 
Spd
km/h
Gust
km/h
Spd
kts
Gust
kts
21/11:30pm 24.8 27.9 21.1 80 2.4 NE 6 7 3 4 1015.5 1015.4 0.0
21/11:00pm 25.2 28.3 21.1 78 2.7 NE 6 7 3 4 1015.8 1015.7 0.0
21/10:30pm 25.5 28.2 21.4 78 2.7 NE 9 13 5 7 1015.9 1015.8 0.0
21/10:00pm 25.9 28.2 21.3 76 3.0 NE 11 15 6 8 1015.8 1015.7 0.0
21/09:30pm 26.1 28.8 21.3 75 3.2 NE 9 17 5 9 1015.5 1015.4 0.0
21/09:00pm 26.4 28.5 20.9 72 3.6 NE 11 15 6 8 1015.3 1015.2 0.0
21/08:30pm 26.6 28.2 20.7 70 3.9 NE 13 19 7 10 1015.0 1014.9 0.0
21/08:00pm 27.1 27.9 20.7 68 4.2 NE 17 24 9 13 1014.8 1014.7 0.0

Other Formats:

Comma delimited format used in spreadsheet applications
http://www.bom.gov.au/fwo/IDD60801/IDD60801.94152.axf

JavaScript Object Notation format (JSON) in row-major order
http://www.bom.gov.au/fwo/IDD60801/IDD60801.94152.json